sensor_id;sensor_type;location;lat;lon;timestamp;pressure;altitude;pressure_sealevel;temperature;humidity
50349;BME280;36250;48.740;22.174;2022-08-05T00:01:51;100255.00;;;21.09;67.82
50349;BME280;36250;48.740;22.174;2022-08-05T00:04:17;100253.84;;;20.94;70.56
50349;BME280;36250;48.740;22.174;2022-08-05T00:06:42;100255.13;;;20.87;70.98
50349;BME280;36250;48.740;22.174;2022-08-05T00:09:08;100258.31;;;20.83;70.92
50349;BME280;36250;48.740;22.174;2022-08-05T00:11:33;100260.94;;;20.78;72.16
50349;BME280;36250;48.740;22.174;2022-08-05T00:13:58;100253.88;;;20.67;72.76
50349;BME280;36250;48.740;22.174;2022-08-05T00:16:24;100252.69;;;20.58;73.27
50349;BME280;36250;48.740;22.174;2022-08-05T00:18:49;100253.22;;;20.54;72.79
50349;BME280;36250;48.740;22.174;2022-08-05T00:21:16;100254.84;;;20.55;72.36
50349;BME280;36250;48.740;22.174;2022-08-05T00:23:44;100250.25;;;20.51;72.69
50349;BME280;36250;48.740;22.174;2022-08-05T00:26:10;100253.41;;;20.43;72.80
50349;BME280;36250;48.740;22.174;2022-08-05T00:28:36;100258.72;;;20.37;72.83
50349;BME280;36250;48.740;22.174;2022-08-05T00:31:02;100257.41;;;20.40;72.43
50349;BME280;36250;48.740;22.174;2022-08-05T00:33:28;100253.13;;;20.44;71.75
50349;BME280;36250;48.740;22.174;2022-08-05T00:35:53;100251.56;;;20.48;71.43
50349;BME280;36250;48.740;22.174;2022-08-05T00:38:18;100253.22;;;20.54;70.87
50349;BME280;36250;48.740;22.174;2022-08-05T00:40:49;100251.09;;;20.56;70.58
50349;BME280;36250;48.740;22.174;2022-08-05T00:43:15;100255.53;;;20.40;68.97
50349;BME280;36250;48.740;22.174;2022-08-05T00:45:41;100245.72;;;20.29;68.48
50349;BME280;36250;48.740;22.174;2022-08-05T00:48:08;100246.72;;;20.18;68.82
50349;BME280;36250;48.740;22.174;2022-08-05T00:50:34;100245.78;;;20.07;68.61
50349;BME280;36250;48.740;22.174;2022-08-05T00:52:59;100248.38;;;19.96;68.99
50349;BME280;36250;48.740;22.174;2022-08-05T00:55:25;100246.69;;;19.90;69.40
50349;BME280;36250;48.740;22.174;2022-08-05T00:57:50;100244.94;;;19.79;69.79
50349;BME280;36250;48.740;22.174;2022-08-05T01:00:15;100241.03;;;19.69;70.62
50349;BME280;36250;48.740;22.174;2022-08-05T01:02:41;100246.81;;;19.56;71.01
50349;BME280;36250;48.740;22.174;2022-08-05T01:05:06;100245.56;;;19.42;71.88
50349;BME280;36250;48.740;22.174;2022-08-05T01:07:32;100238.72;;;19.34;72.12
50349;BME280;36250;48.740;22.174;2022-08-05T01:09:57;100242.97;;;19.30;72.23
50349;BME280;36250;48.740;22.174;2022-08-05T01:12:24;100246.41;;;19.25;72.65
50349;BME280;36250;48.740;22.174;2022-08-05T01:15:05;100248.53;;;19.23;72.83
50349;BME280;36250;48.740;22.174;2022-08-05T01:17:46;100248.44;;;19.18;73.34
50349;BME280;36250;48.740;22.174;2022-08-05T01:28:56;100241.75;;;18.98;74.64
50349;BME280;36250;48.740;22.174;2022-08-05T01:31:34;100245.78;;;19.01;74.71
50349;BME280;36250;48.740;22.174;2022-08-05T01:34:27;100240.91;;;18.98;75.00
50349;BME280;36250;48.740;22.174;2022-08-05T01:36:59;100233.69;;;18.98;75.23
50349;BME280;36250;48.740;22.174;2022-08-05T01:39:27;100233.44;;;19.00;75.47
50349;BME280;36250;48.740;22.174;2022-08-05T01:41:53;100236.50;;;18.91;75.70
50349;BME280;36250;48.740;22.174;2022-08-05T01:44:20;100233.25;;;18.89;75.80
50349;BME280;36250;48.740;22.174;2022-08-05T01:46:47;100235.03;;;18.83;76.43
50349;BME280;36250;48.740;22.174;2022-08-05T01:49:22;100240.47;;;18.72;76.91
50349;BME280;36250;48.740;22.174;2022-08-05T01:51:50;100234.81;;;18.68;77.21
50349;BME280;36250;48.740;22.174;2022-08-05T01:54:17;100239.03;;;18.64;77.30
50349;BME280;36250;48.740;22.174;2022-08-05T01:56:45;100233.19;;;18.67;77.16
50349;BME280;36250;48.740;22.174;2022-08-05T01:59:14;100238.63;;;18.72;77.25
50349;BME280;36250;48.740;22.174;2022-08-05T02:01:41;100240.66;;;18.65;77.29
50349;BME280;36250;48.740;22.174;2022-08-05T02:04:08;100245.69;;;18.61;77.46
50349;BME280;36250;48.740;22.174;2022-08-05T02:06:35;100243.97;;;18.55;77.78
50349;BME280;36250;48.740;22.174;2022-08-05T02:09:00;100253.16;;;18.42;78.23
50349;BME280;36250;48.740;22.174;2022-08-05T02:11:35;100246.06;;;18.36;78.80
50349;BME280;36250;48.740;22.174;2022-08-05T02:14:08;100238.59;;;18.38;78.90
50349;BME280;36250;48.740;22.174;2022-08-05T02:16:46;100238.75;;;18.31;79.59
50349;BME280;36250;48.740;22.174;2022-08-05T02:19:30;100236.94;;;18.20;79.89
50349;BME280;36250;48.740;22.174;2022-08-05T02:22:01;100240.09;;;18.17;80.11
50349;BME280;36250;48.740;22.174;2022-08-05T02:24:33;100235.31;;;18.19;80.83
50349;BME280;36250;48.740;22.174;2022-08-05T02:27:02;100232.63;;;18.19;80.81
50349;BME280;36250;48.740;22.174;2022-08-05T02:29:32;100232.97;;;18.22;80.71
50349;BME280;36250;48.740;22.174;2022-08-05T02:31:59;100231.34;;;18.21;81.21
50349;BME280;36250;48.740;22.174;2022-08-05T02:34:28;100237.44;;;18.17;81.38
50349;BME280;36250;48.740;22.174;2022-08-05T02:36:56;100239.69;;;18.08;81.73
50349;BME280;36250;48.740;22.174;2022-08-05T02:39:23;100232.38;;;18.03;81.79
50349;BME280;36250;48.740;22.174;2022-08-05T02:41:52;100233.03;;;18.10;82.16
50349;BME280;36250;48.740;22.174;2022-08-05T02:44:20;100238.88;;;18.07;82.25
50349;BME280;36250;48.740;22.174;2022-08-05T02:46:49;100233.16;;;18.04;82.58
50349;BME280;36250;48.740;22.174;2022-08-05T02:49:16;100237.00;;;18.08;82.27
50349;BME280;36250;48.740;22.174;2022-08-05T02:51:42;100237.56;;;18.10;82.00
50349;BME280;36250;48.740;22.174;2022-08-05T02:54:09;100241.16;;;18.16;82.11
50349;BME280;36250;48.740;22.174;2022-08-05T02:56:35;100241.38;;;18.14;82.16
50349;BME280;36250;48.740;22.174;2022-08-05T02:59:02;100249.44;;;18.14;82.73
50349;BME280;36250;48.740;22.174;2022-08-05T03:01:29;100256.13;;;18.00;82.99
50349;BME280;36250;48.740;22.174;2022-08-05T03:03:59;100248.25;;;17.81;83.77
50349;BME280;36250;48.740;22.174;2022-08-05T03:06:26;100245.94;;;17.73;84.00
50349;BME280;36250;48.740;22.174;2022-08-05T03:08:53;100254.97;;;17.55;84.48
50349;BME280;36250;48.740;22.174;2022-08-05T03:11:25;100238.56;;;17.51;85.16
50349;BME280;36250;48.740;22.174;2022-08-05T03:13:51;100240.53;;;17.56;85.48
50349;BME280;36250;48.740;22.174;2022-08-05T03:16:17;100247.03;;;17.60;85.41
50349;BME280;36250;48.740;22.174;2022-08-05T03:18:43;100249.38;;;17.56;85.20
50349;BME280;36250;48.740;22.174;2022-08-05T03:21:09;100244.47;;;17.53;85.41
50349;BME280;36250;48.740;22.174;2022-08-05T03:23:36;100245.28;;;17.53;85.78
50349;BME280;36250;48.740;22.174;2022-08-05T03:26:03;100248.31;;;17.57;86.24
50349;BME280;36250;48.740;22.174;2022-08-05T03:28:29;100237.47;;;17.64;85.88
50349;BME280;36250;48.740;22.174;2022-08-05T03:30:55;100243.38;;;17.78;85.31
50349;BME280;36250;48.740;22.174;2022-08-05T03:33:21;100248.09;;;17.88;85.42
50349;BME280;36250;48.740;22.174;2022-08-05T03:35:47;100248.94;;;17.88;85.59
50349;BME280;36250;48.740;22.174;2022-08-05T03:38:13;100244.38;;;17.89;85.47
50349;BME280;36250;48.740;22.174;2022-08-05T03:40:40;100248.81;;;17.95;84.84
50349;BME280;36250;48.740;22.174;2022-08-05T03:43:06;100245.66;;;17.98;84.73
50349;BME280;36250;48.740;22.174;2022-08-05T03:45:31;100245.03;;;18.08;84.08
50349;BME280;36250;48.740;22.174;2022-08-05T03:47:56;100245.56;;;18.22;83.22
50349;BME280;36250;48.740;22.174;2022-08-05T03:50:22;100242.56;;;18.35;83.03
50349;BME280;36250;48.740;22.174;2022-08-05T03:53:14;100244.53;;;18.40;82.21
50349;BME280;36250;48.740;22.174;2022-08-05T03:55:46;100244.97;;;18.49;81.21
50349;BME280;36250;48.740;22.174;2022-08-05T03:58:16;100236.09;;;18.48;81.23
50349;BME280;36250;48.740;22.174;2022-08-05T04:00:43;100242.28;;;18.49;81.16
50349;BME280;36250;48.740;22.174;2022-08-05T04:03:10;100241.88;;;18.57;80.68
50349;BME280;36250;48.740;22.174;2022-08-05T04:05:37;100237.50;;;18.68;80.19
50349;BME280;36250;48.740;22.174;2022-08-05T04:08:06;100234.47;;;18.81;79.61
50349;BME280;36250;48.740;22.174;2022-08-05T04:10:33;100245.00;;;19.00;79.43
50349;BME280;36250;48.740;22.174;2022-08-05T04:12:59;100242.25;;;19.17;78.36
50349;BME280;36250;48.740;22.174;2022-08-05T04:15:27;100236.78;;;19.29;77.31
50349;BME280;36250;48.740;22.174;2022-08-05T04:17:53;100240.75;;;19.44;76.65
50349;BME280;36250;48.740;22.174;2022-08-05T04:20:20;100233.63;;;19.54;76.28
50349;BME280;36250;48.740;22.174;2022-08-05T04:22:46;100239.69;;;19.67;76.29
50349;BME280;36250;48.740;22.174;2022-08-05T04:25:12;100240.13;;;19.81;76.03
50349;BME280;36250;48.740;22.174;2022-08-05T04:27:37;100249.13;;;19.92;76.08
50349;BME280;36250;48.740;22.174;2022-08-05T04:30:04;100240.31;;;19.96;76.17
50349;BME280;36250;48.740;22.174;2022-08-05T04:32:29;100243.09;;;19.84;77.48
50349;BME280;36250;48.740;22.174;2022-08-05T04:34:54;100244.63;;;19.75;77.04
50349;BME280;36250;48.740;22.174;2022-08-05T04:37:20;100236.88;;;19.79;77.33
50349;BME280;36250;48.740;22.174;2022-08-05T04:39:45;100242.13;;;19.91;77.42
50349;BME280;36250;48.740;22.174;2022-08-05T04:42:10;100236.78;;;19.96;78.21
50349;BME280;36250;48.740;22.174;2022-08-05T04:44:36;100239.91;;;20.10;77.66
50349;BME280;36250;48.740;22.174;2022-08-05T04:47:01;100238.09;;;20.16;77.63
50349;BME280;36250;48.740;22.174;2022-08-05T04:49:26;100244.78;;;20.13;77.19
50349;BME280;36250;48.740;22.174;2022-08-05T04:51:52;100240.50;;;20.17;77.27
50349;BME280;36250;48.740;22.174;2022-08-05T04:54:18;100235.75;;;20.24;77.37
50349;BME280;36250;48.740;22.174;2022-08-05T04:56:44;100238.56;;;20.40;77.14
50349;BME280;36250;48.740;22.174;2022-08-05T04:59:10;100232.22;;;20.51;76.32
50349;BME280;36250;48.740;22.174;2022-08-05T05:01:35;100237.41;;;20.63;75.72
50349;BME280;36250;48.740;22.174;2022-08-05T05:04:01;100243.38;;;20.70;74.92
50349;BME280;36250;48.740;22.174;2022-08-05T05:06:26;100241.56;;;20.76;76.11
50349;BME280;36250;48.740;22.174;2022-08-05T05:08:51;100238.03;;;20.76;76.64
50349;BME280;36250;48.740;22.174;2022-08-05T05:11:17;100236.47;;;20.80;76.50
50349;BME280;36250;48.740;22.174;2022-08-05T05:13:42;100240.56;;;20.82;76.35
50349;BME280;36250;48.740;22.174;2022-08-05T05:16:07;100244.91;;;20.89;76.47
50349;BME280;36250;48.740;22.174;2022-08-05T05:18:33;100243.84;;;20.95;76.58
50349;BME280;36250;48.740;22.174;2022-08-05T05:20:58;100243.34;;;20.98;76.22
50349;BME280;36250;48.740;22.174;2022-08-05T05:23:23;100237.25;;;21.13;75.41
50349;BME280;36250;48.740;22.174;2022-08-05T05:25:49;100244.34;;;21.24;74.53
50349;BME280;36250;48.740;22.174;2022-08-05T05:28:14;100242.22;;;21.32;73.04
50349;BME280;36250;48.740;22.174;2022-08-05T05:30:39;100243.28;;;21.31;72.76
50349;BME280;36250;48.740;22.174;2022-08-05T05:33:06;100247.63;;;21.42;73.00
50349;BME280;36250;48.740;22.174;2022-08-05T05:35:32;100240.25;;;21.70;73.13
50349;BME280;36250;48.740;22.174;2022-08-05T05:37:59;100240.03;;;21.92;71.84
50349;BME280;36250;48.740;22.174;2022-08-05T05:40:26;100240.06;;;22.03;72.56
50349;BME280;36250;48.740;22.174;2022-08-05T05:42:53;100244.38;;;21.98;71.99
50349;BME280;36250;48.740;22.174;2022-08-05T05:45:19;100242.75;;;21.97;71.98
50349;BME280;36250;48.740;22.174;2022-08-05T05:47:45;100248.69;;;22.15;72.48
50349;BME280;36250;48.740;22.174;2022-08-05T05:50:13;100249.00;;;22.24;71.99
50349;BME280;36250;48.740;22.174;2022-08-05T05:52:38;100244.44;;;22.29;72.63
50349;BME280;36250;48.740;22.174;2022-08-05T05:55:11;100236.31;;;22.35;71.53
50349;BME280;36250;48.740;22.174;2022-08-05T05:57:38;100243.88;;;22.43;71.09
50349;BME280;36250;48.740;22.174;2022-08-05T06:00:06;100246.59;;;22.48;70.67
50349;BME280;36250;48.740;22.174;2022-08-05T06:02:31;100246.88;;;22.62;70.37
50349;BME280;36250;48.740;22.174;2022-08-05T06:04:57;100246.06;;;22.77;69.61
50349;BME280;36250;48.740;22.174;2022-08-05T06:07:22;100240.94;;;22.91;69.69
50349;BME280;36250;48.740;22.174;2022-08-05T06:09:47;100245.47;;;23.11;69.51
50349;BME280;36250;48.740;22.174;2022-08-05T06:12:13;100239.78;;;23.13;69.21
50349;BME280;36250;48.740;22.174;2022-08-05T06:14:38;100235.75;;;23.15;67.51
50349;BME280;36250;48.740;22.174;2022-08-05T06:17:04;100243.56;;;23.33;67.75
50349;BME280;36250;48.740;22.174;2022-08-05T06:19:29;100243.75;;;23.52;67.80
50349;BME280;36250;48.740;22.174;2022-08-05T06:21:54;100242.59;;;23.68;66.71
50349;BME280;36250;48.740;22.174;2022-08-05T06:24:19;100243.03;;;23.86;66.40
50349;BME280;36250;48.740;22.174;2022-08-05T06:26:45;100240.28;;;24.01;64.77
50349;BME280;36250;48.740;22.174;2022-08-05T06:29:10;100243.44;;;24.14;64.50
50349;BME280;36250;48.740;22.174;2022-08-05T06:31:36;100247.91;;;24.34;63.68
50349;BME280;36250;48.740;22.174;2022-08-05T06:34:02;100247.28;;;24.42;63.43
50349;BME280;36250;48.740;22.174;2022-08-05T06:36:28;100249.06;;;24.57;63.63
50349;BME280;36250;48.740;22.174;2022-08-05T06:38:53;100250.63;;;24.69;61.83
50349;BME280;36250;48.740;22.174;2022-08-05T06:41:19;100248.69;;;24.69;62.46
50349;BME280;36250;48.740;22.174;2022-08-05T06:43:45;100251.06;;;24.81;60.47
50349;BME280;36250;48.740;22.174;2022-08-05T06:46:11;100253.66;;;24.92;59.93
50349;BME280;36250;48.740;22.174;2022-08-05T06:48:36;100243.75;;;25.06;59.07
50349;BME280;36250;48.740;22.174;2022-08-05T06:51:03;100242.22;;;25.24;58.43
50349;BME280;36250;48.740;22.174;2022-08-05T06:53:28;100243.81;;;25.25;58.41
50349;BME280;36250;48.740;22.174;2022-08-05T06:55:57;100243.22;;;25.34;58.59
50349;BME280;36250;48.740;22.174;2022-08-05T06:58:23;100243.84;;;25.50;57.10
50349;BME280;36250;48.740;22.174;2022-08-05T07:00:48;100239.22;;;25.50;57.03
50349;BME280;36250;48.740;22.174;2022-08-05T07:03:14;100240.44;;;25.63;56.29
50349;BME280;36250;48.740;22.174;2022-08-05T07:05:39;100246.75;;;25.78;55.25
50349;BME280;36250;48.740;22.174;2022-08-05T07:08:04;100246.31;;;25.89;55.71
50349;BME280;36250;48.740;22.174;2022-08-05T07:10:31;100242.06;;;26.02;54.06
50349;BME280;36250;48.740;22.174;2022-08-05T07:12:56;100239.66;;;26.20;54.05
50349;BME280;36250;48.740;22.174;2022-08-05T07:15:40;100238.81;;;26.39;52.95
50349;BME280;36250;48.740;22.174;2022-08-05T07:18:24;100228.72;;;26.58;50.63
50349;BME280;36250;48.740;22.174;2022-08-05T07:20:50;100237.28;;;26.66;50.50
50349;BME280;36250;48.740;22.174;2022-08-05T07:23:15;100233.44;;;26.67;48.94
50349;BME280;36250;48.740;22.174;2022-08-05T07:25:40;100229.03;;;26.71;49.77
50349;BME280;36250;48.740;22.174;2022-08-05T07:28:06;100230.31;;;26.93;49.02
50349;BME280;36250;48.740;22.174;2022-08-05T07:30:32;100235.44;;;27.08;48.77
50349;BME280;36250;48.740;22.174;2022-08-05T07:33:02;100230.22;;;26.98;47.85
50349;BME280;36250;48.740;22.174;2022-08-05T07:35:28;100226.19;;;26.95;47.51
50349;BME280;36250;48.740;22.174;2022-08-05T07:37:53;100228.22;;;27.17;46.52
50349;BME280;36250;48.740;22.174;2022-08-05T07:40:18;100231.94;;;27.22;47.19
50349;BME280;36250;48.740;22.174;2022-08-05T07:42:46;100227.63;;;27.21;45.41
50349;BME280;36250;48.740;22.174;2022-08-05T07:45:11;100227.78;;;27.10;46.07
50349;BME280;36250;48.740;22.174;2022-08-05T07:47:37;100221.06;;;27.22;46.32
50349;BME280;36250;48.740;22.174;2022-08-05T07:50:02;100233.72;;;27.40;46.97
50349;BME280;36250;48.740;22.174;2022-08-05T07:52:28;100220.56;;;27.33;45.98
50349;BME280;36250;48.740;22.174;2022-08-05T07:54:53;100223.69;;;27.27;46.12
50349;BME280;36250;48.740;22.174;2022-08-05T07:57:19;100217.50;;;27.49;46.86
50349;BME280;36250;48.740;22.174;2022-08-05T07:59:44;100215.47;;;27.69;45.21
50349;BME280;36250;48.740;22.174;2022-08-05T08:02:10;100220.00;;;27.73;46.24
50349;BME280;36250;48.740;22.174;2022-08-05T08:04:35;100226.03;;;27.84;45.71
50349;BME280;36250;48.740;22.174;2022-08-05T08:07:00;100222.00;;;27.82;45.12
50349;BME280;36250;48.740;22.174;2022-08-05T08:09:26;100218.44;;;27.95;44.97
50349;BME280;36250;48.740;22.174;2022-08-05T08:11:52;100215.09;;;27.98;45.50
50349;BME280;36250;48.740;22.174;2022-08-05T08:14:17;100215.78;;;28.04;44.84
50349;BME280;36250;48.740;22.174;2022-08-05T08:16:42;100215.47;;;28.05;44.64
50349;BME280;36250;48.740;22.174;2022-08-05T08:19:08;100211.75;;;28.01;44.72
50349;BME280;36250;48.740;22.174;2022-08-05T08:21:33;100215.53;;;28.14;44.76
50349;BME280;36250;48.740;22.174;2022-08-05T08:23:59;100215.00;;;28.26;45.09
50349;BME280;36250;48.740;22.174;2022-08-05T08:26:24;100211.41;;;28.40;44.63
50349;BME280;36250;48.740;22.174;2022-08-05T08:28:49;100205.69;;;28.50;44.19
50349;BME280;36250;48.740;22.174;2022-08-05T08:31:15;100205.56;;;28.32;43.97
50349;BME280;36250;48.740;22.174;2022-08-05T08:33:42;100205.47;;;28.38;44.20
50349;BME280;36250;48.740;22.174;2022-08-05T08:36:07;100198.72;;;28.35;44.51
50349;BME280;36250;48.740;22.174;2022-08-05T08:38:33;100195.78;;;28.54;43.31
50349;BME280;36250;48.740;22.174;2022-08-05T08:40:59;100193.53;;;28.56;42.27
50349;BME280;36250;48.740;22.174;2022-08-05T08:43:27;100196.41;;;28.51;42.61
50349;BME280;36250;48.740;22.174;2022-08-05T08:45:53;100191.81;;;28.60;42.45
50349;BME280;36250;48.740;22.174;2022-08-05T08:48:20;100181.66;;;28.84;42.30
50349;BME280;36250;48.740;22.174;2022-08-05T08:50:46;100181.19;;;28.82;41.86
50349;BME280;36250;48.740;22.174;2022-08-05T08:53:15;100195.28;;;28.84;43.25
50349;BME280;36250;48.740;22.174;2022-08-05T08:55:40;100186.56;;;29.13;42.79
50349;BME280;36250;48.740;22.174;2022-08-05T08:58:07;100183.31;;;29.43;42.28
50349;BME280;36250;48.740;22.174;2022-08-05T09:00:33;100176.06;;;29.56;40.75
50349;BME280;36250;48.740;22.174;2022-08-05T09:02:59;100180.41;;;29.66;41.31
50349;BME280;36250;48.740;22.174;2022-08-05T09:05:25;100173.53;;;29.68;39.97
50349;BME280;36250;48.740;22.174;2022-08-05T09:07:51;100171.91;;;29.58;40.85
50349;BME280;36250;48.740;22.174;2022-08-05T09:10:16;100176.75;;;29.79;40.05
50349;BME280;36250;48.740;22.174;2022-08-05T09:12:42;100182.19;;;29.88;40.26
50349;BME280;36250;48.740;22.174;2022-08-05T09:15:08;100177.84;;;29.96;39.57
50349;BME280;36250;48.740;22.174;2022-08-05T09:17:33;100166.78;;;30.10;38.87
50349;BME280;36250;48.740;22.174;2022-08-05T09:19:59;100154.06;;;30.23;37.50
50349;BME280;36250;48.740;22.174;2022-08-05T09:22:25;100150.34;;;30.27;37.24
50349;BME280;36250;48.740;22.174;2022-08-05T09:25:00;100156.09;;;30.34;38.70
50349;BME280;36250;48.740;22.174;2022-08-05T09:27:34;100149.38;;;30.32;37.75
50349;BME280;36250;48.740;22.174;2022-08-05T09:30:01;100149.97;;;30.46;37.39
50349;BME280;36250;48.740;22.174;2022-08-05T09:32:37;100141.06;;;30.58;38.26
50349;BME280;36250;48.740;22.174;2022-08-05T09:35:13;100137.13;;;30.47;37.64
50349;BME280;36250;48.740;22.174;2022-08-05T09:37:49;100138.44;;;30.32;38.09
50349;BME280;36250;48.740;22.174;2022-08-05T09:40:29;100145.22;;;30.17;38.13
50349;BME280;36250;48.740;22.174;2022-08-05T09:42:54;100144.94;;;30.10;39.21
50349;BME280;36250;48.740;22.174;2022-08-05T09:45:20;100133.50;;;30.16;37.94
50349;BME280;36250;48.740;22.174;2022-08-05T09:47:46;100133.38;;;30.13;37.92
50349;BME280;36250;48.740;22.174;2022-08-05T09:50:12;100125.75;;;30.27;36.29
50349;BME280;36250;48.740;22.174;2022-08-05T09:52:37;100119.94;;;30.38;35.95
50349;BME280;36250;48.740;22.174;2022-08-05T09:55:07;100116.31;;;30.55;35.67
50349;BME280;36250;48.740;22.174;2022-08-05T09:57:42;100121.75;;;30.72;37.23
50349;BME280;36250;48.740;22.174;2022-08-05T10:00:20;100121.03;;;30.45;36.84
50349;BME280;36250;48.740;22.174;2022-08-05T10:02:50;100116.03;;;30.47;35.33
50349;BME280;36250;48.740;22.174;2022-08-05T10:05:21;100113.75;;;30.58;34.59
50349;BME280;36250;48.740;22.174;2022-08-05T10:07:59;100108.94;;;30.55;34.79
50349;BME280;36250;48.740;22.174;2022-08-05T10:10:27;100111.00;;;30.67;35.24
50349;BME280;36250;48.740;22.174;2022-08-05T10:12:58;100108.78;;;30.60;32.49
50349;BME280;36250;48.740;22.174;2022-08-05T10:15:35;100100.41;;;30.66;30.73
50349;BME280;36250;48.740;22.174;2022-08-05T10:20:32;100099.00;;;31.11;30.21
50349;BME280;36250;48.740;22.174;2022-08-05T10:22:59;100094.00;;;31.13;29.64
50349;BME280;36250;48.740;22.174;2022-08-05T10:25:24;100091.88;;;31.40;29.90
50349;BME280;36250;48.740;22.174;2022-08-05T10:27:50;100088.00;;;31.41;30.05
50349;BME280;36250;48.740;22.174;2022-08-05T10:30:18;100094.28;;;31.41;31.25
50349;BME280;36250;48.740;22.174;2022-08-05T10:32:44;100094.13;;;31.16;32.81
50349;BME280;36250;48.740;22.174;2022-08-05T10:35:09;100081.97;;;31.35;32.68
50349;BME280;36250;48.740;22.174;2022-08-05T10:37:35;100086.91;;;31.42;32.04
50349;BME280;36250;48.740;22.174;2022-08-05T10:40:04;100076.56;;;31.60;32.08
50349;BME280;36250;48.740;22.174;2022-08-05T10:42:34;100072.28;;;31.71;32.15
50349;BME280;36250;48.740;22.174;2022-08-05T10:45:06;100060.50;;;31.92;31.76
50349;BME280;36250;48.740;22.174;2022-08-05T10:47:33;100058.56;;;32.05;32.27
50349;BME280;36250;48.740;22.174;2022-08-05T10:50:08;100057.31;;;32.02;32.22
50349;BME280;36250;48.740;22.174;2022-08-05T10:55:08;100061.09;;;31.98;31.30
50349;BME280;36250;48.740;22.174;2022-08-05T10:57:34;100060.72;;;31.99;29.59
50349;BME280;36250;48.740;22.174;2022-08-05T11:00:19;100057.09;;;32.07;30.71
50349;BME280;36250;48.740;22.174;2022-08-05T11:05:34;100044.47;;;32.53;30.79
50349;BME280;36250;48.740;22.174;2022-08-05T11:08:02;100049.28;;;32.43;29.64
50349;BME280;36250;48.740;22.174;2022-08-05T11:10:29;100050.75;;;32.53;30.55
50349;BME280;36250;48.740;22.174;2022-08-05T11:12:56;100041.94;;;32.72;30.41
50349;BME280;36250;48.740;22.174;2022-08-05T11:15:36;100031.22;;;33.08;29.12
50349;BME280;36250;48.740;22.174;2022-08-05T11:20:37;100022.03;;;32.88;28.92
50349;BME280;36250;48.740;22.174;2022-08-05T11:28:52;100017.47;;;33.20;28.13
50349;BME280;36250;48.740;22.174;2022-08-05T11:31:21;100021.84;;;33.50;27.94
50349;BME280;36250;48.740;22.174;2022-08-05T11:36:15;100010.94;;;32.97;28.32
50349;BME280;36250;48.740;22.174;2022-08-05T11:41:26;100018.63;;;32.78;28.37
50349;BME280;36250;48.740;22.174;2022-08-05T11:46:29;100018.34;;;33.08;28.26
50349;BME280;36250;48.740;22.174;2022-08-05T11:48:55;100019.94;;;32.97;27.62
50349;BME280;36250;48.740;22.174;2022-08-05T11:51:22;100016.38;;;33.09;27.89
50349;BME280;36250;48.740;22.174;2022-08-05T11:53:48;100013.16;;;33.35;27.54
50349;BME280;36250;48.740;22.174;2022-08-05T11:56:14;100008.72;;;33.43;26.88
50349;BME280;36250;48.740;22.174;2022-08-05T11:58:42;100020.94;;;33.46;26.51
50349;BME280;36250;48.740;22.174;2022-08-05T12:01:12;100005.44;;;33.54;26.61
50349;BME280;36250;48.740;22.174;2022-08-05T12:06:06;100009.53;;;33.60;26.63
50349;BME280;36250;48.740;22.174;2022-08-05T12:08:31;100002.97;;;33.64;26.84
50349;BME280;36250;48.740;22.174;2022-08-05T12:10:58;99994.19;;;33.59;26.26
50349;BME280;36250;48.740;22.174;2022-08-05T12:13:26;99994.31;;;33.78;26.77
50349;BME280;36250;48.740;22.174;2022-08-05T12:15:52;99993.91;;;34.08;26.51
50349;BME280;36250;48.740;22.174;2022-08-05T12:18:17;99999.38;;;34.08;27.02
50349;BME280;36250;48.740;22.174;2022-08-05T12:20:43;100002.13;;;34.08;27.54
50349;BME280;36250;48.740;22.174;2022-08-05T12:23:10;99999.72;;;34.23;27.96
50349;BME280;36250;48.740;22.174;2022-08-05T12:25:52;99991.03;;;34.21;27.80
50349;BME280;36250;48.740;22.174;2022-08-05T12:28:34;99987.28;;;34.29;27.39
50349;BME280;36250;48.740;22.174;2022-08-05T12:30:59;99983.38;;;34.30;27.56
50349;BME280;36250;48.740;22.174;2022-08-05T12:33:25;99979.00;;;34.45;26.81
50349;BME280;36250;48.740;22.174;2022-08-05T12:35:52;99988.75;;;34.59;27.40
50349;BME280;36250;48.740;22.174;2022-08-05T12:38:20;99979.78;;;34.46;26.63
50349;BME280;36250;48.740;22.174;2022-08-05T12:40:46;99987.16;;;34.58;26.97
50349;BME280;36250;48.740;22.174;2022-08-05T12:43:11;99976.38;;;34.33;26.68
50349;BME280;36250;48.740;22.174;2022-08-05T12:45:37;99983.59;;;34.05;27.49
50349;BME280;36250;48.740;22.174;2022-08-05T12:48:14;99978.69;;;34.31;27.34
50349;BME280;36250;48.740;22.174;2022-08-05T12:50:40;99977.84;;;34.46;26.76
50349;BME280;36250;48.740;22.174;2022-08-05T12:53:05;99976.28;;;34.29;27.12
50349;BME280;36250;48.740;22.174;2022-08-05T12:55:30;99965.94;;;34.06;26.28
50349;BME280;36250;48.740;22.174;2022-08-05T12:57:57;99965.88;;;34.19;26.46
50349;BME280;36250;48.740;22.174;2022-08-05T13:00:25;99963.81;;;34.32;26.27
50349;BME280;36250;48.740;22.174;2022-08-05T13:02:51;99966.47;;;34.28;26.89
50349;BME280;36250;48.740;22.174;2022-08-05T13:05:17;99966.22;;;34.01;26.48
50349;BME280;36250;48.740;22.174;2022-08-05T13:07:44;99960.88;;;34.24;26.68
50349;BME280;36250;48.740;22.174;2022-08-05T13:10:11;99960.91;;;34.44;26.22
50349;BME280;36250;48.740;22.174;2022-08-05T13:12:42;99957.44;;;34.63;26.49
50349;BME280;36250;48.740;22.174;2022-08-05T13:15:11;99952.44;;;34.89;24.94
50349;BME280;36250;48.740;22.174;2022-08-05T13:17:37;99937.75;;;35.01;24.79